Time;durP1;ratioP1;P1;durP2;ratioP2;P2;SDS_P1;SDS_P2;PMS_P1;PMS_P2;Temp;Humidity;BMP_temperature;BMP_pressure;BME280_temperature;BME280_humidity;BME280_pressure;Samples;Min_cycle;Max_cycle;Signal;HPM_P1;HPM_P2
2023/12/21 08:47:04;;;;;;;3.27;0.60;;;10.90;99.90;;;;;;5148849;23;20553;-74
2023/12/21 08:49:36;;;;;;;4.30;0.50;;;11.00;99.90;;;;;;4886199;23;20635;-74
2023/12/21 08:52:03;;;;;;;2.90;0.67;;;11.10;99.90;;;;;;4878873;29;20662;-74
2023/12/21 08:54:30;;;;;;;5.10;0.53;;;11.10;99.90;;;;;;4877583;29;20979;-72
2023/12/21 08:56:57;;;;;;;0.57;0.40;;;11.10;99.90;;;;;;4880573;29;20207;-72
2023/12/21 08:59:26;;;;;;;2.50;0.60;;;11.30;99.90;;;;;;4879799;29;20562;-73
2023/12/21 09:01:53;;;;;;;3.50;0.57;;;11.30;99.90;;;;;;4879713;29;20229;-73
2023/12/21 09:04:22;;;;;;;2.33;0.40;;;11.30;99.90;;;;;;4879130;29;20661;-73
2023/12/21 09:06:49;;;;;;;2.00;0.50;;;11.30;99.90;;;;;;4879507;29;20295;-73
2023/12/21 09:09:16;;;;;;;1.33;0.60;;;11.30;99.90;;;;;;4879927;29;20692;-75
2023/12/21 09:11:43;;;;;;;1.70;0.30;;;11.30;99.90;;;;;;4879289;29;20215;-73
2023/12/21 09:14:10;;;;;;;5.00;0.50;;;11.30;99.90;;;;;;4878797;29;20255;-73
2023/12/21 09:16:37;;;;;;;3.80;0.50;;;11.30;99.90;;;;;;4897381;29;20211;-74
2023/12/21 09:19:05;;;;;;;5.87;0.60;;;11.40;99.90;;;;;;4877738;29;20218;-74
2023/12/21 09:21:36;;;;;;;1.27;0.40;;;11.50;99.90;;;;;;4860535;29;20663;-73
2023/12/21 09:24:03;;;;;;;1.90;0.20;;;11.60;99.90;;;;;;4860347;29;20246;-74
2023/12/21 09:26:30;;;;;;;1.83;0.40;;;11.70;99.90;;;;;;4896629;29;20241;-75
2023/12/21 09:28:57;;;;;;;2.50;0.57;;;11.70;99.90;;;;;;4879143;29;20599;-75
2023/12/21 09:31:24;;;;;;;3.37;0.50;;;11.70;99.90;;;;;;4878845;29;20293;-74
2023/12/21 09:33:51;;;;;;;2.70;0.50;;;11.80;99.90;;;;;;4878878;29;20211;-72
2023/12/21 09:36:19;;;;;;;2.73;0.47;;;11.80;99.90;;;;;;4878416;29;20710;-75
2023/12/21 09:38:48;;;;;;;2.60;0.50;;;11.90;99.90;;;;;;4878935;29;20217;-75
2023/12/21 09:41:15;;;;;;;0.40;0.30;;;11.90;99.90;;;;;;4878792;29;20666;-73
2023/12/21 09:43:43;;;;;;;2.63;0.40;;;11.90;99.90;;;;;;4878922;29;20234;-73
2023/12/21 09:46:11;;;;;;;3.70;0.40;;;11.80;99.90;;;;;;4878751;29;20361;-74
2023/12/21 09:48:40;;;;;;;2.50;0.40;;;11.90;99.90;;;;;;4878388;29;20226;-75
2023/12/21 09:51:08;;;;;;;2.60;0.50;;;11.90;99.90;;;;;;4892291;29;20203;-74
2023/12/21 09:53:37;;;;;;;3.57;0.43;;;12.00;99.90;;;;;;4886437;29;20692;-74
2023/12/21 09:56:08;;;;;;;1.47;0.57;;;12.00;99.90;;;;;;4877893;29;20227;-74
2023/12/21 09:58:36;;;;;;;2.67;0.40;;;12.10;99.90;;;;;;4878645;29;20223;-75
2023/12/21 10:01:03;;;;;;;2.50;0.40;;;12.10;99.90;;;;;;4878803;29;20207;-74
2023/12/21 10:03:32;;;;;;;1.07;0.40;;;12.10;99.90;;;;;;4878591;29;20211;-74
2023/12/21 10:05:59;;;;;;;1.80;0.30;;;12.20;99.90;;;;;;4878712;29;20239;-75
2023/12/21 10:08:26;;;;;;;1.67;0.40;;;12.30;99.90;;;;;;4878186;29;20218;-75
2023/12/21 10:10:53;;;;;;;2.80;0.30;;;12.30;99.90;;;;;;4878458;29;20211;-75
2023/12/21 10:13:23;;;;;;;0.70;0.30;;;12.20;99.90;;;;;;4878605;29;20266;-75
2023/12/21 10:15:58;;;;;;;2.80;0.30;;;12.20;99.90;;;;;;4878503;29;20235;-74
2023/12/21 10:18:26;;;;;;;5.00;0.50;;;12.20;99.90;;;;;;4879678;29;20210;-72
2023/12/21 10:20:53;;;;;;;1.50;0.40;;;12.20;99.90;;;;;;4879737;29;20674;-74
2023/12/21 10:23:20;;;;;;;1.57;0.40;;;12.10;99.90;;;;;;4879642;29;20825;-73
2023/12/21 10:25:48;;;;;;;0.60;0.30;;;12.10;99.90;;;;;;4881622;29;20242;-76
2023/12/21 10:28:15;;;;;;;0.77;0.50;;;12.20;99.90;;;;;;4882994;29;20694;-74
2023/12/21 10:30:44;;;;;;;1.57;0.50;;;12.20;99.90;;;;;;4883623;29;20209;-76
2023/12/21 10:33:12;;;;;;;4.80;0.40;;;12.30;99.90;;;;;;4879741;29;20239;-74
2023/12/21 10:35:39;;;;;;;2.47;0.40;;;12.30;99.90;;;;;;4879107;29;20606;-74
2023/12/21 10:38:07;;;;;;;1.40;0.40;;;12.30;99.90;;;;;;4878753;29;20215;-75
2023/12/21 10:40:34;;;;;;;2.03;0.40;;;12.40;99.90;;;;;;4879371;29;20219;-76
2023/12/21 10:43:02;;;;;;;1.13;0.30;;;12.40;99.90;;;;;;4879528;29;20271;-75
2023/12/21 10:45:29;;;;;;;2.47;0.40;;;12.40;99.90;;;;;;4879492;29;20254;-76
2023/12/21 10:48:01;;;;;;;1.53;0.30;;;12.50;99.90;;;;;;4879190;29;20635;-75
2023/12/21 10:50:30;;;;;;;0.93;0.40;;;12.50;99.90;;;;;;4885053;29;20285;-76
2023/12/21 10:53:00;;;;;;;0.60;0.23;;;12.50;99.90;;;;;;4898205;29;20665;-76
2023/12/21 10:55:29;;;;;;;1.50;0.20;;;12.50;99.90;;;;;;4887263;29;20651;-76
2023/12/21 10:57:57;;;;;;;2.40;0.43;;;12.50;99.90;;;;;;4879465;29;20298;-75
2023/12/21 11:00:25;;;;;;;1.80;0.33;;;12.50;99.90;;;;;;4878958;29;20267;-76
2023/12/21 11:02:53;;;;;;;2.07;0.30;;;12.50;99.90;;;;;;4879135;29;20218;-74
2023/12/21 11:05:23;;;;;;;1.50;0.20;;;12.60;99.90;;;;;;4878911;29;20242;-76
2023/12/21 11:07:53;;;;;;;0.30;0.30;;;12.60;99.90;;;;;;4880215;29;20211;-79
2023/12/21 11:10:22;;;;;;;1.67;1.07;;;12.60;99.90;;;;;;4880724;29;21270;-73
2023/12/21 11:12:53;;;;;;;0.80;0.30;;;12.70;99.90;;;;;;4879559;29;20294;-75
2023/12/21 11:15:21;;;;;;;0.80;0.30;;;12.60;99.90;;;;;;4878910;29;20237;-74
2023/12/21 11:17:53;;;;;;;2.60;0.30;;;12.60;99.90;;;;;;4878580;29;20575;-76
2023/12/21 11:20:25;;;;;;;1.70;0.40;;;12.60;99.90;;;;;;4878463;29;20211;-74
2023/12/21 11:22:53;;;;;;;0.47;0.30;;;12.60;99.90;;;;;;4879022;29;20218;-74
2023/12/21 11:25:22;;;;;;;2.43;0.40;;;12.60;99.90;;;;;;4878901;29;20242;-75
2023/12/21 11:27:50;;;;;;;1.80;0.30;;;12.60;99.90;;;;;;4878510;29;20659;-76
2023/12/21 11:30:18;;;;;;;1.37;0.33;;;12.70;99.90;;;;;;4878604;29;20215;-76
2023/12/21 11:32:47;;;;;;;1.00;0.23;;;12.70;99.90;;;;;;4875440;29;20214;-76
2023/12/21 11:35:19;;;;;;;1.93;0.30;;;12.80;99.90;;;;;;4877412;29;20249;-76
2023/12/21 11:37:50;;;;;;;1.90;0.50;;;12.80;99.90;;;;;;4876911;29;20221;-77
2023/12/21 11:40:20;;;;;;;1.93;0.37;;;12.80;99.90;;;;;;4877375;29;20211;-78
2023/12/21 11:42:49;;;;;;;3.20;0.30;;;12.70;99.90;;;;;;4880840;29;20578;-76
2023/12/21 11:45:23;;;;;;;0.97;0.50;;;12.60;99.90;;;;;;4880673;29;20235;-74
2023/12/21 11:47:51;;;;;;;1.33;0.40;;;12.60;99.90;;;;;;4880212;29;20650;-74
2023/12/21 11:50:20;;;;;;;3.57;0.60;;;12.50;99.90;;;;;;4880809;29;20250;-72
2023/12/21 11:52:49;;;;;;;2.30;0.30;;;12.50;99.90;;;;;;4880834;29;20207;-74
2023/12/21 11:55:26;;;;;;;1.57;0.20;;;12.30;99.90;;;;;;4880225;29;20241;-74
2023/12/21 11:58:08;;;;;;;2.53;0.50;;;12.30;99.90;;;;;;4881348;29;20258;-74
2023/12/21 12:00:41;;;;;;;2.80;0.40;;;12.20;99.90;;;;;;4880636;29;20235;-73
2023/12/21 12:03:09;;;;;;;1.13;0.20;;;12.10;99.90;;;;;;4880076;29;20207;-73
2023/12/21 12:05:36;;;;;;;1.80;0.30;;;11.90;99.90;;;;;;4880505;29;20718;-72
2023/12/21 12:08:05;;;;;;;3.67;0.30;;;11.90;99.90;;;;;;4881138;29;20686;-72
2023/12/21 12:10:32;;;;;;;3.13;0.33;;;11.80;99.90;;;;;;4880057;29;20279;-73
2023/12/21 12:13:00;;;;;;;1.37;0.30;;;11.70;99.90;;;;;;4880780;29;20222;-73
2023/12/21 12:15:27;;;;;;;0.50;0.30;;;11.70;99.90;;;;;;4881156;29;20663;-73
2023/12/21 12:17:54;;;;;;;1.80;0.30;;;11.70;99.90;;;;;;4880353;29;20714;-76
2023/12/21 12:20:21;;;;;;;1.60;0.40;;;11.70;99.90;;;;;;4880915;29;20650;-73
2023/12/21 12:22:52;;;;;;;0.50;0.27;;;11.70;99.90;;;;;;4880792;29;20250;-72
2023/12/21 12:25:20;;;;;;;3.13;0.57;;;11.70;99.90;;;;;;4879931;29;20325;-73
2023/12/21 12:27:48;;;;;;;1.70;0.30;;;11.80;99.90;;;;;;4880354;29;20219;-73
2023/12/21 12:30:17;;;;;;;1.30;0.30;;;11.90;99.90;;;;;;4880184;29;20215;-73
2023/12/21 12:32:45;;;;;;;3.90;0.50;;;11.90;99.90;;;;;;4880363;29;20325;-73
2023/12/21 12:35:12;;;;;;;1.37;0.30;;;11.90;99.90;;;;;;4880529;29;20275;-72
2023/12/21 12:37:40;;;;;;;1.63;0.50;;;12.00;99.90;;;;;;4880193;29;20222;-73
2023/12/21 12:40:09;;;;;;;1.33;0.37;;;12.10;99.90;;;;;;4880255;29;20215;-73
2023/12/21 12:42:38;;;;;;;3.53;0.50;;;12.20;99.90;;;;;;4879941;29;20208;-73
2023/12/21 12:45:07;;;;;;;2.47;0.80;;;12.20;99.90;;;;;;4880062;29;20706;-73
2023/12/21 12:47:35;;;;;;;1.40;0.60;;;12.30;99.90;;;;;;4875505;29;20212;-72
2023/12/21 12:50:05;;;;;;;2.97;0.40;;;12.30;99.90;;;;;;4881853;29;20626;-72
2023/12/21 12:52:33;;;;;;;1.27;0.37;;;12.20;99.90;;;;;;4879122;29;20290;-73
2023/12/21 12:55:07;;;;;;;1.70;0.40;;;12.30;99.90;;;;;;4879541;29;20314;-75
2023/12/21 12:57:34;;;;;;;2.67;0.40;;;12.40;99.90;;;;;;4879436;29;20210;-72
2023/12/21 13:00:08;;;;;;;1.27;0.80;;;12.40;99.90;;;;;;4879645;29;20215;-72
2023/12/21 13:02:35;;;;;;;2.20;0.47;;;12.40;99.90;;;;;;4879002;29;20296;-73
2023/12/21 13:05:02;;;;;;;2.50;0.40;;;12.20;99.90;;;;;;4879500;29;20242;-73
2023/12/21 13:07:29;;;;;;;2.57;0.60;;;12.10;99.90;;;;;;4879643;29;20231;-74
2023/12/21 13:09:56;;;;;;;0.40;0.30;;;12.00;99.90;;;;;;4879117;29;20297;-78
2023/12/21 13:12:24;;;;;;;1.73;0.50;;;11.90;99.90;;;;;;4879680;29;20211;-76
2023/12/21 13:14:51;;;;;;;4.43;0.90;;;11.80;99.90;;;;;;4879975;29;20237;-75
2023/12/21 13:17:19;;;;;;;3.37;0.77;;;11.80;99.90;;;;;;4878779;29;20212;-77
2023/12/21 13:19:47;;;;;;;2.20;0.40;;;11.80;99.90;;;;;;4880931;29;20215;-72
2023/12/21 13:22:14;;;;;;;3.37;1.10;;;11.80;99.90;;;;;;4881098;29;20207;-72
2023/12/21 13:24:41;;;;;;;1.20;0.43;;;11.70;99.90;;;;;;4880665;29;20243;-73
2023/12/21 13:27:08;;;;;;;0.70;0.33;;;11.70;99.90;;;;;;4880445;29;20215;-76
2023/12/21 13:29:35;;;;;;;1.33;0.60;;;11.70;99.90;;;;;;4880828;29;20211;-73
2023/12/21 13:32:03;;;;;;;2.77;0.30;;;11.70;99.90;;;;;;4881081;29;20215;-75
2023/12/21 13:34:31;;;;;;;2.93;1.13;;;11.60;99.90;;;;;;4880613;29;20222;-74
2023/12/21 13:36:59;;;;;;;0.93;0.37;;;11.70;99.90;;;;;;4880770;29;20207;-76
2023/12/21 13:39:28;;;;;;;1.97;0.83;;;11.70;99.90;;;;;;4880618;29;20215;-73
2023/12/21 13:41:55;;;;;;;3.20;0.63;;;11.80;99.90;;;;;;4880627;29;20211;-73
2023/12/21 13:44:23;;;;;;;1.53;0.70;;;11.80;99.90;;;;;;4880300;29;20290;-74
2023/12/21 13:46:50;;;;;;;0.77;0.53;;;11.70;99.90;;;;;;4880632;29;20271;-73
2023/12/21 13:49:17;;;;;;;4.60;0.70;;;11.70;99.90;;;;;;4880507;29;20222;-74
2023/12/21 13:51:46;;;;;;;3.27;0.40;;;11.70;99.90;;;;;;4880545;29;20690;-75
2023/12/21 13:54:13;;;;;;;0.80;0.40;;;11.70;99.90;;;;;;4880311;29;20275;-74
2023/12/21 13:56:40;;;;;;;2.30;0.50;;;11.80;99.90;;;;;;4880461;29;20239;-74
2023/12/21 13:59:07;;;;;;;3.33;1.13;;;11.90;99.90;;;;;;4880453;29;20226;-74
2023/12/21 14:01:34;;;;;;;2.77;0.50;;;11.90;99.90;;;;;;4880530;29;20222;-74
2023/12/21 14:04:01;;;;;;;2.97;0.40;;;11.90;99.90;;;;;;4880004;29;20215;-76
2023/12/21 14:06:28;;;;;;;1.43;0.30;;;11.80;99.90;;;;;;4880204;29;20725;-75
2023/12/21 14:08:56;;;;;;;4.57;0.50;;;11.70;99.90;;;;;;4880467;29;20218;-74
2023/12/21 14:11:23;;;;;;;0.93;0.30;;;11.60;99.90;;;;;;4880297;29;20293;-74
2023/12/21 14:13:50;;;;;;;2.13;0.40;;;11.60;99.90;;;;;;4880316;29;20211;-76
2023/12/21 14:16:17;;;;;;;2.43;0.83;;;11.60;99.90;;;;;;4880076;29;20237;-75
2023/12/21 14:18:44;;;;;;;1.40;0.47;;;11.60;99.90;;;;;;4880086;29;20218;-73
2023/12/21 14:21:11;;;;;;;3.80;0.30;;;11.60;99.90;;;;;;4880108;29;20212;-73
2023/12/21 14:23:38;;;;;;;2.60;0.63;;;11.60;99.90;;;;;;4879816;29;20259;-76
2023/12/21 14:26:08;;;;;;;1.03;0.40;;;11.70;99.90;;;;;;4880118;29;20250;-74
2023/12/21 14:28:35;;;;;;;0.30;0.20;;;11.70;99.90;;;;;;4879805;29;20239;-72
2023/12/21 14:31:02;;;;;;;0.90;0.40;;;11.70;99.90;;;;;;4880058;29;20670;-72
2023/12/21 14:33:29;;;;;;;1.33;0.30;;;11.70;99.90;;;;;;4879893;29;20215;-72
2023/12/21 14:35:56;;;;;;;0.57;0.27;;;11.70;99.90;;;;;;4879706;29;20231;-73
2023/12/21 14:38:24;;;;;;;1.40;0.40;;;11.70;99.90;;;;;;4880050;29;20327;-73
2023/12/21 14:40:51;;;;;;;1.90;0.30;;;11.70;99.90;;;;;;4879525;29;20677;-76
2023/12/21 14:43:19;;;;;;;0.83;0.20;;;11.60;99.90;;;;;;4879701;29;20283;-73
2023/12/21 14:45:47;;;;;;;0.73;0.30;;;11.50;99.90;;;;;;4879839;29;20243;-73
2023/12/21 14:48:16;;;;;;;2.67;0.30;;;11.40;99.90;;;;;;4879473;29;20230;-73
2023/12/21 14:50:43;;;;;;;2.30;0.20;;;11.30;99.90;;;;;;4879180;29;20210;-73
2023/12/21 14:53:10;;;;;;;0.63;0.30;;;11.10;99.90;;;;;;4879255;29;20222;-76
2023/12/21 14:55:40;;;;;;;0.80;0.30;;;10.90;99.90;;;;;;4879458;29;20583;-76
2023/12/21 14:58:07;;;;;;;1.13;0.30;;;10.80;99.90;;;;;;4879439;29;20215;-73
2023/12/21 15:00:35;;;;;;;1.97;0.40;;;10.80;99.90;;;;;;4879496;29;20612;-75
2023/12/21 15:03:03;;;;;;;0.40;0.30;;;10.80;99.90;;;;;;4879410;29;20211;-75
2023/12/21 15:05:30;;;;;;;1.50;0.30;;;10.80;99.90;;;;;;4879193;29;20766;-76
2023/12/21 15:07:57;;;;;;;0.80;0.53;;;10.80;99.90;;;;;;4879717;29;20207;-76
2023/12/21 15:10:26;;;;;;;1.57;0.30;;;10.80;99.90;;;;;;4879493;29;20243;-76
2023/12/21 15:12:53;;;;;;;0.50;0.30;;;10.80;99.90;;;;;;4879236;29;20211;-75
2023/12/21 15:15:29;;;;;;;1.80;0.50;;;10.80;99.90;;;;;;4878203;29;20231;-74
2023/12/21 15:17:58;;;;;;;3.90;0.40;;;10.90;99.90;;;;;;4859384;29;20203;-74
2023/12/21 15:20:25;;;;;;;1.30;0.50;;;10.90;99.90;;;;;;4858764;29;20211;-76
2023/12/21 15:22:52;;;;;;;0.97;0.50;;;11.00;99.90;;;;;;4859218;29;20802;-75
2023/12/21 15:25:19;;;;;;;4.00;0.57;;;11.00;99.90;;;;;;4859132;29;20363;-74
2023/12/21 15:27:46;;;;;;;8.13;1.17;;;11.10;99.90;;;;;;4877525;29;20210;-74
2023/12/21 15:30:14;;;;;;;5.13;0.90;;;11.10;99.90;;;;;;4877260;29;20223;-75
2023/12/21 15:32:41;;;;;;;3.03;0.80;;;11.10;99.90;;;;;;4877611;29;20567;-75
2023/12/21 15:35:10;;;;;;;2.60;0.70;;;11.00;99.90;;;;;;4878331;29;20238;-77
2023/12/21 15:37:37;;;;;;;5.10;0.50;;;11.00;99.90;;;;;;4879244;29;20211;-76
2023/12/21 15:40:05;;;;;;;5.60;0.60;;;11.00;99.90;;;;;;4878961;29;20309;-73
2023/12/21 15:42:33;;;;;;;4.43;0.93;;;11.00;99.90;;;;;;4878913;29;20619;-72
2023/12/21 15:45:00;;;;;;;2.67;1.27;;;11.00;99.90;;;;;;4878861;29;20227;-73
2023/12/21 15:47:28;;;;;;;0.80;0.40;;;11.00;99.90;;;;;;4878932;29;20710;-72
2023/12/21 15:49:55;;;;;;;4.10;0.70;;;11.00;99.90;;;;;;4878815;29;20219;-74
2023/12/21 15:52:24;;;;;;;3.47;0.70;;;11.10;99.90;;;;;;4879155;29;20215;-72
2023/12/21 15:54:51;;;;;;;2.30;0.80;;;11.10;99.90;;;;;;4879061;29;20246;-73
2023/12/21 15:57:18;;;;;;;0.80;0.40;;;11.10;99.90;;;;;;4878791;29;20215;-76
2023/12/21 15:59:45;;;;;;;2.47;0.73;;;11.00;99.90;;;;;;4879102;29;20215;-72
2023/12/21 16:02:11;;;;;;;1.23;0.63;;;11.00;99.90;;;;;;4879111;29;20207;-72
2023/12/21 16:04:38;;;;;;;7.27;0.70;;;11.10;99.90;;;;;;4878678;29;20231;-72
2023/12/21 16:07:05;;;;;;;1.93;0.40;;;11.00;99.90;;;;;;4878911;29;20239;-72
2023/12/21 16:09:34;;;;;;;4.90;0.50;;;11.10;99.90;;;;;;4878561;29;20263;-73
2023/12/21 16:12:01;;;;;;;3.07;0.70;;;11.10;99.90;;;;;;4878619;29;20271;-73
2023/12/21 16:14:28;;;;;;;3.17;0.40;;;11.10;99.90;;;;;;4878843;29;20211;-75
2023/12/21 16:16:55;;;;;;;2.40;0.60;;;11.10;99.90;;;;;;4878832;29;20314;-74
2023/12/21 16:19:22;;;;;;;2.90;0.53;;;11.00;99.90;;;;;;4878879;29;20581;-72
2023/12/21 16:21:49;;;;;;;3.63;0.60;;;11.00;99.90;;;;;;4878813;29;20215;-71
2023/12/21 16:24:17;;;;;;;1.00;0.50;;;11.00;99.90;;;;;;4878592;29;20215;-73
2023/12/21 16:26:45;;;;;;;3.03;0.57;;;10.90;99.90;;;;;;4879957;29;20697;-76
2023/12/21 16:29:12;;;;;;;1.90;0.57;;;10.90;99.90;;;;;;4882450;29;20276;-72
2023/12/21 16:31:39;;;;;;;4.60;0.97;;;10.90;99.90;;;;;;4882065;29;20211;-76
2023/12/21 16:34:06;;;;;;;2.53;0.53;;;11.00;99.90;;;;;;4882103;29;20230;-72
2023/12/21 16:36:33;;;;;;;2.87;0.60;;;10.90;99.90;;;;;;4881933;29;20235;-72
2023/12/21 16:39:00;;;;;;;4.10;0.57;;;11.00;99.90;;;;;;4881927;29;20211;-72
2023/12/21 16:41:27;;;;;;;1.30;0.47;;;11.00;99.90;;;;;;4882142;29;20215;-72
2023/12/21 16:43:56;;;;;;;3.70;0.60;;;11.10;99.90;;;;;;4881974;29;20306;-71
2023/12/21 16:46:23;;;;;;;1.93;0.47;;;11.00;99.90;;;;;;4881582;29;20239;-76
2023/12/21 16:48:50;;;;;;;5.80;1.20;;;11.00;99.90;;;;;;4881682;29;20594;-75
2023/12/21 16:51:17;;;;;;;3.47;0.50;;;11.00;99.90;;;;;;4881628;29;20242;-71
2023/12/21 16:53:44;;;;;;;3.80;0.70;;;11.00;99.90;;;;;;4881684;29;20211;-76
2023/12/21 16:56:12;;;;;;;3.67;1.03;;;11.00;99.90;;;;;;4881607;29;20239;-75
2023/12/21 16:58:39;;;;;;;1.73;0.40;;;11.00;99.90;;;;;;4881671;29;20562;-75
2023/12/21 17:01:09;;;;;;;3.50;0.57;;;11.00;99.90;;;;;;4881674;29;20207;-72
2023/12/21 17:03:36;;;;;;;3.83;0.50;;;11.10;99.90;;;;;;4881429;29;20301;-75
2023/12/21 17:06:03;;;;;;;1.60;0.50;;;11.20;99.90;;;;;;4881252;29;20258;-73
2023/12/21 17:08:31;;;;;;;2.53;0.70;;;11.10;99.90;;;;;;4881725;29;20247;-76
2023/12/21 17:10:58;;;;;;;3.47;0.77;;;11.20;99.90;;;;;;4881613;29;20211;-72
2023/12/21 17:13:25;;;;;;;5.60;0.67;;;11.20;99.90;;;;;;4881302;29;20211;-75
2023/12/21 17:15:52;;;;;;;2.30;0.70;;;11.20;99.90;;;;;;4881212;29;20242;-76
2023/12/21 17:18:21;;;;;;;3.27;0.57;;;11.20;99.90;;;;;;4881537;29;20245;-76
2023/12/21 17:20:48;;;;;;;0.77;0.50;;;11.10;99.90;;;;;;4881448;29;20263;-74
2023/12/21 17:23:16;;;;;;;2.90;0.67;;;11.10;99.90;;;;;;4881536;29;20211;-76
2023/12/21 17:25:43;;;;;;;1.43;0.50;;;11.10;99.90;;;;;;4881553;29;20235;-73
2023/12/21 17:28:11;;;;;;;2.40;0.40;;;11.10;99.90;;;;;;4881245;29;20631;-75
2023/12/21 17:30:39;;;;;;;1.50;0.50;;;11.10;99.90;;;;;;4881538;29;20222;-73
2023/12/21 17:33:06;;;;;;;6.03;1.40;;;11.10;99.90;;;;;;4881339;29;20214;-71
2023/12/21 17:35:35;;;;;;;7.13;1.87;;;11.20;99.90;;;;;;4881405;29;20235;-75
2023/12/21 17:38:02;;;;;;;1.60;0.70;;;11.30;99.90;;;;;;4881011;29;20228;-72
2023/12/21 17:40:29;;;;;;;4.47;0.70;;;11.30;99.90;;;;;;4881486;29;20215;-75
2023/12/21 17:42:56;;;;;;;3.23;0.67;;;11.30;99.90;;;;;;4881378;29;20652;-76
2023/12/21 17:45:24;;;;;;;3.90;0.60;;;11.50;99.90;;;;;;4881380;29;20243;-76
2023/12/21 17:47:51;;;;;;;1.97;1.50;;;11.50;99.90;;;;;;4881267;29;20295;-75
2023/12/21 17:50:19;;;;;;;3.73;0.67;;;11.50;99.90;;;;;;4881340;29;20234;-76
2023/12/21 17:52:49;;;;;;;1.73;0.80;;;11.60;99.90;;;;;;4880810;29;20667;-75
2023/12/21 17:55:16;;;;;;;4.13;1.10;;;11.60;99.90;;;;;;4880809;29;20267;-73
2023/12/21 17:57:43;;;;;;;6.33;1.70;;;11.60;99.90;;;;;;4880846;29;20207;-75
2023/12/21 18:00:11;;;;;;;2.30;0.47;;;11.70;99.90;;;;;;4880395;29;20222;-76
2023/12/21 18:02:40;;;;;;;3.43;1.23;;;11.70;99.90;;;;;;4880485;29;20261;-75
2023/12/21 18:05:07;;;;;;;2.77;0.50;;;11.70;99.90;;;;;;4880511;29;20234;-75
2023/12/21 18:07:34;;;;;;;1.90;0.60;;;11.70;99.90;;;;;;4880450;29;20307;-74
2023/12/21 18:10:03;;;;;;;6.30;0.67;;;11.80;99.90;;;;;;4873452;29;20218;-71
2023/12/21 18:12:31;;;;;;;2.67;0.40;;;11.70;99.90;;;;;;4878905;29;20290;-78
2023/12/21 18:14:58;;;;;;;1.90;0.50;;;11.70;99.90;;;;;;4879424;29;20227;-78
2023/12/21 18:17:25;;;;;;;2.60;1.00;;;11.70;99.90;;;;;;4873398;29;20214;-75
2023/12/21 18:19:52;;;;;;;2.67;0.50;;;11.80;99.90;;;;;;4874839;29;20640;-76
2023/12/21 18:22:19;;;;;;;1.97;0.40;;;11.70;99.90;;;;;;4875872;29;20211;-75
2023/12/21 18:24:48;;;;;;;2.10;0.33;;;11.70;99.90;;;;;;4880024;29;20238;-76
2023/12/21 18:27:17;;;;;;;1.10;0.47;;;11.70;99.90;;;;;;4877417;29;20251;-71
2023/12/21 18:29:45;;;;;;;2.07;0.70;;;11.70;99.90;;;;;;4879408;29;20203;-76
2023/12/21 18:32:12;;;;;;;1.83;0.40;;;11.70;99.90;;;;;;4879283;29;20217;-72
2023/12/21 18:34:39;;;;;;;3.87;0.53;;;11.70;99.90;;;;;;4879020;29;20254;-72
2023/12/21 18:37:06;;;;;;;3.20;0.50;;;11.60;99.90;;;;;;4878791;29;20659;-76
2023/12/21 18:39:33;;;;;;;1.93;1.00;;;11.60;99.90;;;;;;4879384;29;20346;-76
2023/12/21 18:42:00;;;;;;;4.10;0.97;;;11.50;99.90;;;;;;4878556;29;20207;-76
2023/12/21 18:44:29;;;;;;;1.60;0.57;;;11.50;99.90;;;;;;4879006;29;20279;-77
2023/12/21 18:46:56;;;;;;;2.50;0.80;;;11.60;99.90;;;;;;4879021;29;20257;-76
2023/12/21 18:49:23;;;;;;;4.67;0.90;;;11.50;99.90;;;;;;4876283;29;20215;-73
2023/12/21 18:51:50;;;;;;;3.87;0.73;;;11.30;99.90;;;;;;4874768;29;20294;-76
2023/12/21 18:54:17;;;;;;;3.17;0.50;;;11.20;99.90;;;;;;4878416;29;20211;-75
2023/12/21 18:56:44;;;;;;;3.90;0.80;;;11.10;99.90;;;;;;4878964;29;20229;-75
2023/12/21 18:59:12;;;;;;;4.83;0.90;;;11.00;99.90;;;;;;4878638;29;20730;-75
2023/12/21 19:01:40;;;;;;;4.60;0.70;;;10.90;99.90;;;;;;4878516;29;20302;-74
2023/12/21 19:04:09;;;;;;;5.23;0.60;;;10.80;99.90;;;;;;4878580;29;20214;-72
2023/12/21 19:06:36;;;;;;;1.63;0.73;;;10.70;99.90;;;;;;4878608;29;20253;-76
2023/12/21 19:09:03;;;;;;;0.90;0.50;;;10.60;99.90;;;;;;4868346;29;20203;-72
2023/12/21 19:11:30;;;;;;;4.27;0.90;;;10.50;99.90;;;;;;4877894;29;20240;-76
2023/12/21 19:13:57;;;;;;;3.93;0.70;;;10.40;99.90;;;;;;4878910;29;20207;-73
2023/12/21 19:16:24;;;;;;;5.70;0.90;;;10.40;99.90;;;;;;4878256;29;20291;-75
2023/12/21 19:18:53;;;;;;;2.60;0.80;;;10.40;99.90;;;;;;4878599;29;20258;-75
2023/12/21 19:21:20;;;;;;;1.63;0.63;;;10.40;99.90;;;;;;4878583;29;20223;-74
2023/12/21 19:23:47;;;;;;;3.33;0.50;;;10.50;99.90;;;;;;4876365;29;20203;-75
2023/12/21 19:26:16;;;;;;;1.67;0.60;;;10.50;99.90;;;;;;4875027;29;20271;-74
2023/12/21 19:28:43;;;;;;;5.67;0.90;;;10.50;99.90;;;;;;4879015;29;20246;-74
2023/12/21 19:31:11;;;;;;;3.53;0.70;;;10.60;99.90;;;;;;4878818;29;20223;-72
2023/12/21 19:33:38;;;;;;;4.00;0.93;;;10.60;99.90;;;;;;4878622;29;20306;-72
2023/12/21 19:36:15;;;;;;;7.27;1.03;;;10.60;99.90;;;;;;4878237;29;20592;-75
2023/12/21 19:38:43;;;;;;;6.47;0.70;;;10.60;99.90;;;;;;4878457;29;20298;-73
2023/12/21 19:41:10;;;;;;;3.17;0.60;;;10.80;99.90;;;;;;4873432;29;20203;-74
2023/12/21 19:43:38;;;;;;;4.17;0.67;;;10.80;99.90;;;;;;4876726;29;20698;-76
2023/12/21 19:46:06;;;;;;;3.87;0.83;;;10.80;99.90;;;;;;4876244;29;20640;-75
2023/12/21 19:48:35;;;;;;;7.03;0.73;;;10.80;99.90;;;;;;4875903;29;20247;-75
2023/12/21 19:51:02;;;;;;;3.23;1.03;;;10.80;99.90;;;;;;4876440;29;20221;-74
2023/12/21 19:53:31;;;;;;;2.83;0.67;;;10.70;99.90;;;;;;4877879;29;20238;-73
2023/12/21 19:55:58;;;;;;;3.83;0.83;;;10.80;99.90;;;;;;4878031;29;20234;-72
2023/12/21 19:58:26;;;;;;;6.93;0.70;;;10.80;99.90;;;;;;4872396;29;20680;-75
2023/12/21 20:00:54;;;;;;;2.63;1.03;;;10.80;99.90;;;;;;4873982;29;20212;-75
2023/12/21 20:03:21;;;;;;;3.43;0.60;;;10.70;99.90;;;;;;4879190;29;20301;-73
2023/12/21 20:05:48;;;;;;;4.77;0.90;;;10.70;99.90;;;;;;4881675;29;20227;-72
2023/12/21 20:08:15;;;;;;;2.60;1.10;;;10.60;99.90;;;;;;4881836;29;20265;-73
2023/12/21 20:10:44;;;;;;;4.37;1.20;;;10.40;99.90;;;;;;4881330;29;20218;-73
2023/12/21 20:13:11;;;;;;;3.03;0.90;;;10.30;99.90;;;;;;4881648;29;20207;-72
2023/12/21 20:15:38;;;;;;;7.03;0.80;;;10.30;99.90;;;;;;4881544;29;20235;-75
2023/12/21 20:18:05;;;;;;;8.13;0.90;;;10.30;99.90;;;;;;4881437;29;20619;-74
2023/12/21 20:20:32;;;;;;;4.03;0.90;;;10.30;99.90;;;;;;4869338;29;20297;-74
2023/12/21 20:22:59;;;;;;;7.10;1.03;;;10.20;99.90;;;;;;4881480;29;20318;-74
2023/12/21 20:25:26;;;;;;;4.37;0.90;;;10.20;99.90;;;;;;4882056;29;20635;-75
2023/12/21 20:27:55;;;;;;;3.33;0.80;;;10.20;99.90;;;;;;4881848;29;20246;-73
2023/12/21 20:30:22;;;;;;;7.93;0.97;;;10.20;99.90;;;;;;4882463;29;20250;-76
2023/12/21 20:32:50;;;;;;;4.20;0.63;;;10.30;99.90;;;;;;4882223;29;20219;-75
2023/12/21 20:35:18;;;;;;;7.10;1.47;;;10.30;99.90;;;;;;4882458;29;20223;-73
2023/12/21 20:37:45;;;;;;;4.87;1.57;;;10.40;99.90;;;;;;4881908;29;20211;-75
2023/12/21 20:40:13;;;;;;;4.27;0.70;;;10.40;99.90;;;;;;4881627;29;20243;-77
2023/12/21 20:42:40;;;;;;;8.50;0.80;;;10.40;99.90;;;;;;4881650;29;20583;-74
2023/12/21 20:45:10;;;;;;;5.27;0.70;;;10.50;99.90;;;;;;4881875;29;20698;-73
2023/12/21 20:47:37;;;;;;;4.90;0.60;;;10.50;99.90;;;;;;4881385;29;21550;-75
2023/12/21 20:50:05;;;;;;;5.27;1.20;;;10.60;99.90;;;;;;4881383;29;20221;-74
2023/12/21 20:52:32;;;;;;;2.30;0.43;;;10.60;99.90;;;;;;4881397;29;20214;-75
2023/12/21 20:54:59;;;;;;;3.33;0.57;;;10.60;99.90;;;;;;4881531;29;20254;-74
2023/12/21 20:57:27;;;;;;;3.87;0.50;;;10.60;99.90;;;;;;4881027;29;20274;-78
2023/12/21 20:59:54;;;;;;;7.70;1.03;;;10.60;99.90;;;;;;4881364;29;20211;-73
2023/12/21 21:02:26;;;;;;;5.93;0.60;;;10.70;99.90;;;;;;4880945;29;20215;-73
2023/12/21 21:04:53;;;;;;;5.43;0.80;;;10.80;99.90;;;;;;4880833;29;20234;-73
2023/12/21 21:07:20;;;;;;;6.93;1.00;;;10.80;99.90;;;;;;4880840;29;20266;-74
2023/12/21 21:09:47;;;;;;;3.13;0.70;;;10.80;99.90;;;;;;4881200;29;20211;-72
2023/12/21 21:12:15;;;;;;;4.27;1.10;;;10.70;99.90;;;;;;4881705;29;20294;-75
2023/12/21 21:14:43;;;;;;;5.33;1.50;;;10.90;99.90;;;;;;4880832;29;20257;-74
2023/12/21 21:17:10;;;;;;;8.27;1.70;;;10.80;99.90;;;;;;4880865;29;20239;-73
2023/12/21 21:19:38;;;;;;;7.20;0.70;;;10.80;99.90;;;;;;4881350;29;20218;-74
2023/12/21 21:22:05;;;;;;;2.30;0.57;;;10.80;99.90;;;;;;4881112;29;20215;-75
2023/12/21 21:24:32;;;;;;;2.43;0.70;;;10.80;99.90;;;;;;4880731;29;20270;-76
2023/12/21 21:27:00;;;;;;;3.77;0.60;;;10.80;99.90;;;;;;4868914;29;20219;-74
2023/12/21 21:29:28;;;;;;;3.40;1.23;;;10.90;99.90;;;;;;4880760;29;20222;-76
2023/12/21 21:31:55;;;;;;;5.30;0.73;;;10.80;99.90;;;;;;4881185;29;20290;-73
2023/12/21 21:34:23;;;;;;;2.77;0.53;;;10.80;99.90;;;;;;4880748;29;20267;-76
2023/12/21 21:36:54;;;;;;;6.37;0.60;;;10.70;99.90;;;;;;4880950;29;20222;-75